sensor_id;sensor_type;location;lat;lon;timestamp;P1;durP1;ratioP1;P2;durP2;ratioP2
31770;SDS011;18343;50.152;8.182;2023-06-10T00:00:43;10.18;;;7.32;;
31770;SDS011;18343;50.152;8.182;2023-06-10T00:03:29;15.20;;;7.40;;
31770;SDS011;18343;50.152;8.182;2023-06-10T00:06:14;11.98;;;6.93;;
31770;SDS011;18343;50.152;8.182;2023-06-10T00:08:59;11.02;;;6.80;;
31770;SDS011;18343;50.152;8.182;2023-06-10T00:11:45;12.88;;;7.03;;
31770;SDS011;18343;50.152;8.182;2023-06-10T00:14:30;8.68;;;7.10;;
31770;SDS011;18343;50.152;8.182;2023-06-10T00:17:15;11.32;;;7.15;;
31770;SDS011;18343;50.152;8.182;2023-06-10T00:20:01;11.30;;;7.05;;
31770;SDS011;18343;50.152;8.182;2023-06-10T00:22:46;13.55;;;7.68;;
31770;SDS011;18343;50.152;8.182;2023-06-10T00:25:31;10.65;;;7.28;;
31770;SDS011;18343;50.152;8.182;2023-06-10T00:28:16;12.07;;;7.50;;
31770;SDS011;18343;50.152;8.182;2023-06-10T00:31:00;8.98;;;6.28;;
31770;SDS011;18343;50.152;8.182;2023-06-10T00:33:45;10.57;;;7.93;;
31770;SDS011;18343;50.152;8.182;2023-06-10T00:36:31;11.77;;;7.10;;
31770;SDS011;18343;50.152;8.182;2023-06-10T00:39:16;12.80;;;6.65;;
31770;SDS011;18343;50.152;8.182;2023-06-10T00:42:01;9.82;;;6.90;;
31770;SDS011;18343;50.152;8.182;2023-06-10T00:44:46;10.95;;;6.97;;
31770;SDS011;18343;50.152;8.182;2023-06-10T00:47:31;9.32;;;6.75;;
31770;SDS011;18343;50.152;8.182;2023-06-10T00:50:16;11.23;;;6.90;;
31770;SDS011;18343;50.152;8.182;2023-06-10T00:53:02;9.57;;;6.85;;
31770;SDS011;18343;50.152;8.182;2023-06-10T00:55:46;13.52;;;7.53;;
31770;SDS011;18343;50.152;8.182;2023-06-10T00:58:32;9.95;;;7.20;;
31770;SDS011;18343;50.152;8.182;2023-06-10T01:01:16;10.88;;;7.00;;
31770;SDS011;18343;50.152;8.182;2023-06-10T01:04:02;8.73;;;7.30;;
31770;SDS011;18343;50.152;8.182;2023-06-10T01:06:49;15.95;;;6.88;;
31770;SDS011;18343;50.152;8.182;2023-06-10T01:09:48;13.25;;;6.95;;
31770;SDS011;18343;50.152;8.182;2023-06-10T01:12:44;10.40;;;6.68;;
31770;SDS011;18343;50.152;8.182;2023-06-10T01:15:36;9.07;;;6.90;;
31770;SDS011;18343;50.152;8.182;2023-06-10T01:18:22;11.38;;;6.55;;
31770;SDS011;18343;50.152;8.182;2023-06-10T01:21:07;13.32;;;7.13;;
31770;SDS011;18343;50.152;8.182;2023-06-10T01:23:56;10.18;;;7.18;;
31770;SDS011;18343;50.152;8.182;2023-06-10T01:26:41;11.05;;;7.80;;
31770;SDS011;18343;50.152;8.182;2023-06-10T01:29:28;8.07;;;7.13;;
31770;SDS011;18343;50.152;8.182;2023-06-10T01:32:22;13.80;;;7.10;;
31770;SDS011;18343;50.152;8.182;2023-06-10T01:35:16;13.43;;;7.53;;
31770;SDS011;18343;50.152;8.182;2023-06-10T01:38:03;12.60;;;7.38;;
31770;SDS011;18343;50.152;8.182;2023-06-10T01:40:51;15.82;;;7.90;;
31770;SDS011;18343;50.152;8.182;2023-06-10T01:43:37;12.25;;;7.47;;
31770;SDS011;18343;50.152;8.182;2023-06-10T01:46:22;9.05;;;7.50;;
31770;SDS011;18343;50.152;8.182;2023-06-10T01:49:07;10.70;;;7.20;;
31770;SDS011;18343;50.152;8.182;2023-06-10T01:51:52;8.13;;;7.15;;
31770;SDS011;18343;50.152;8.182;2023-06-10T01:54:36;14.93;;;8.30;;
31770;SDS011;18343;50.152;8.182;2023-06-10T01:57:27;11.13;;;8.88;;
31770;SDS011;18343;50.152;8.182;2023-06-10T02:00:12;13.90;;;8.88;;
31770;SDS011;18343;50.152;8.182;2023-06-10T02:02:58;12.90;;;9.02;;
31770;SDS011;18343;50.152;8.182;2023-06-10T02:05:43;10.18;;;9.05;;
31770;SDS011;18343;50.152;8.182;2023-06-10T02:08:29;10.48;;;8.32;;
31770;SDS011;18343;50.152;8.182;2023-06-10T02:11:13;12.32;;;9.48;;
31770;SDS011;18343;50.152;8.182;2023-06-10T02:13:59;11.40;;;8.48;;
31770;SDS011;18343;50.152;8.182;2023-06-10T02:16:44;10.50;;;8.25;;
31770;SDS011;18343;50.152;8.182;2023-06-10T02:19:29;11.75;;;8.75;;
31770;SDS011;18343;50.152;8.182;2023-06-10T02:22:13;11.75;;;9.60;;
31770;SDS011;18343;50.152;8.182;2023-06-10T02:24:58;13.40;;;9.65;;
31770;SDS011;18343;50.152;8.182;2023-06-10T02:27:43;16.95;;;9.77;;
31770;SDS011;18343;50.152;8.182;2023-06-10T02:30:29;12.50;;;9.43;;
31770;SDS011;18343;50.152;8.182;2023-06-10T02:33:13;15.70;;;9.80;;
31770;SDS011;18343;50.152;8.182;2023-06-10T02:35:58;10.60;;;9.32;;
31770;SDS011;18343;50.152;8.182;2023-06-10T02:38:42;11.50;;;9.90;;
31770;SDS011;18343;50.152;8.182;2023-06-10T02:41:28;15.50;;;9.80;;
31770;SDS011;18343;50.152;8.182;2023-06-10T02:44:12;14.32;;;10.07;;
31770;SDS011;18343;50.152;8.182;2023-06-10T02:46:58;12.88;;;9.90;;
31770;SDS011;18343;50.152;8.182;2023-06-10T02:49:43;12.90;;;9.60;;
31770;SDS011;18343;50.152;8.182;2023-06-10T02:52:27;15.80;;;10.13;;
31770;SDS011;18343;50.152;8.182;2023-06-10T02:55:12;12.95;;;10.10;;
31770;SDS011;18343;50.152;8.182;2023-06-10T02:57:57;15.43;;;10.57;;
31770;SDS011;18343;50.152;8.182;2023-06-10T03:00:41;14.80;;;10.45;;
31770;SDS011;18343;50.152;8.182;2023-06-10T03:03:29;14.52;;;9.88;;
31770;SDS011;18343;50.152;8.182;2023-06-10T03:06:14;20.63;;;10.30;;
31770;SDS011;18343;50.152;8.182;2023-06-10T03:08:59;13.88;;;10.18;;
31770;SDS011;18343;50.152;8.182;2023-06-10T03:11:45;12.18;;;10.57;;
31770;SDS011;18343;50.152;8.182;2023-06-10T03:14:29;14.05;;;10.73;;
31770;SDS011;18343;50.152;8.182;2023-06-10T03:17:14;12.90;;;11.52;;
31770;SDS011;18343;50.152;8.182;2023-06-10T03:20:00;12.50;;;10.15;;
31770;SDS011;18343;50.152;8.182;2023-06-10T03:22:45;12.98;;;10.82;;
31770;SDS011;18343;50.152;8.182;2023-06-10T03:25:30;13.80;;;9.98;;
31770;SDS011;18343;50.152;8.182;2023-06-10T03:28:14;17.13;;;11.18;;
31770;SDS011;18343;50.152;8.182;2023-06-10T03:30:59;15.07;;;10.68;;
31770;SDS011;18343;50.152;8.182;2023-06-10T03:33:43;15.43;;;10.13;;
31770;SDS011;18343;50.152;8.182;2023-06-10T03:36:29;13.02;;;10.35;;
31770;SDS011;18343;50.152;8.182;2023-06-10T03:39:14;13.00;;;10.30;;
31770;SDS011;18343;50.152;8.182;2023-06-10T03:41:59;14.38;;;11.15;;
31770;SDS011;18343;50.152;8.182;2023-06-10T03:44:43;17.48;;;10.52;;
31770;SDS011;18343;50.152;8.182;2023-06-10T03:47:32;11.68;;;10.48;;
31770;SDS011;18343;50.152;8.182;2023-06-10T03:50:18;13.27;;;10.88;;
31770;SDS011;18343;50.152;8.182;2023-06-10T03:53:04;13.10;;;11.07;;
31770;SDS011;18343;50.152;8.182;2023-06-10T03:55:48;13.40;;;10.80;;
31770;SDS011;18343;50.152;8.182;2023-06-10T03:58:33;12.45;;;10.18;;
31770;SDS011;18343;50.152;8.182;2023-06-10T04:01:17;11.25;;;10.15;;
31770;SDS011;18343;50.152;8.182;2023-06-10T04:04:02;16.65;;;9.98;;
31770;SDS011;18343;50.152;8.182;2023-06-10T04:06:47;17.52;;;11.02;;
31770;SDS011;18343;50.152;8.182;2023-06-10T04:09:34;14.02;;;9.90;;
31770;SDS011;18343;50.152;8.182;2023-06-10T04:12:19;12.75;;;10.05;;
31770;SDS011;18343;50.152;8.182;2023-06-10T04:15:04;18.95;;;11.02;;
31770;SDS011;18343;50.152;8.182;2023-06-10T04:17:50;12.25;;;9.90;;
31770;SDS011;18343;50.152;8.182;2023-06-10T04:20:34;14.10;;;10.27;;
31770;SDS011;18343;50.152;8.182;2023-06-10T04:23:19;16.08;;;10.57;;
31770;SDS011;18343;50.152;8.182;2023-06-10T04:26:05;12.18;;;8.70;;
31770;SDS011;18343;50.152;8.182;2023-06-10T04:28:49;16.13;;;9.40;;
31770;SDS011;18343;50.152;8.182;2023-06-10T04:31:34;8.93;;;8.02;;
31770;SDS011;18343;50.152;8.182;2023-06-10T04:34:18;17.45;;;8.95;;
31770;SDS011;18343;50.152;8.182;2023-06-10T04:37:03;12.35;;;9.20;;
31770;SDS011;18343;50.152;8.182;2023-06-10T04:39:48;13.63;;;8.68;;
31770;SDS011;18343;50.152;8.182;2023-06-10T04:42:34;13.65;;;9.30;;
31770;SDS011;18343;50.152;8.182;2023-06-10T04:45:18;12.15;;;8.95;;
31770;SDS011;18343;50.152;8.182;2023-06-10T04:48:03;14.15;;;8.43;;
31770;SDS011;18343;50.152;8.182;2023-06-10T04:50:47;13.70;;;8.18;;
31770;SDS011;18343;50.152;8.182;2023-06-10T04:53:32;10.57;;;9.43;;
31770;SDS011;18343;50.152;8.182;2023-06-10T04:56:16;14.80;;;9.23;;
31770;SDS011;18343;50.152;8.182;2023-06-10T04:59:02;11.15;;;8.85;;
31770;SDS011;18343;50.152;8.182;2023-06-10T05:01:47;14.23;;;8.93;;
31770;SDS011;18343;50.152;8.182;2023-06-10T05:04:32;12.07;;;8.85;;
31770;SDS011;18343;50.152;8.182;2023-06-10T05:07:20;12.65;;;9.65;;
31770;SDS011;18343;50.152;8.182;2023-06-10T05:10:05;12.10;;;9.20;;
31770;SDS011;18343;50.152;8.182;2023-06-10T05:12:51;13.55;;;10.05;;
31770;SDS011;18343;50.152;8.182;2023-06-10T05:15:37;10.68;;;8.90;;
31770;SDS011;18343;50.152;8.182;2023-06-10T05:18:22;13.65;;;9.65;;
31770;SDS011;18343;50.152;8.182;2023-06-10T05:21:06;11.70;;;9.38;;
31770;SDS011;18343;50.152;8.182;2023-06-10T05:23:51;16.13;;;10.30;;
31770;SDS011;18343;50.152;8.182;2023-06-10T05:26:35;13.70;;;10.07;;
31770;SDS011;18343;50.152;8.182;2023-06-10T05:29:20;14.65;;;10.25;;
31770;SDS011;18343;50.152;8.182;2023-06-10T05:32:07;12.68;;;10.57;;
31770;SDS011;18343;50.152;8.182;2023-06-10T05:34:52;12.52;;;9.60;;
31770;SDS011;18343;50.152;8.182;2023-06-10T05:37:37;12.35;;;10.13;;
31770;SDS011;18343;50.152;8.182;2023-06-10T05:40:21;15.98;;;10.25;;
31770;SDS011;18343;50.152;8.182;2023-06-10T05:43:06;13.00;;;10.20;;
31770;SDS011;18343;50.152;8.182;2023-06-10T05:45:51;18.27;;;10.63;;
31770;SDS011;18343;50.152;8.182;2023-06-10T05:48:37;11.13;;;9.52;;
31770;SDS011;18343;50.152;8.182;2023-06-10T05:51:21;19.80;;;10.70;;
31770;SDS011;18343;50.152;8.182;2023-06-10T05:54:06;16.48;;;10.52;;
31770;SDS011;18343;50.152;8.182;2023-06-10T05:56:51;13.70;;;10.20;;
31770;SDS011;18343;50.152;8.182;2023-06-10T05:59:35;14.68;;;9.93;;
31770;SDS011;18343;50.152;8.182;2023-06-10T06:02:20;16.27;;;10.32;;
31770;SDS011;18343;50.152;8.182;2023-06-10T06:05:06;14.60;;;9.75;;
31770;SDS011;18343;50.152;8.182;2023-06-10T06:07:51;11.55;;;10.32;;
31770;SDS011;18343;50.152;8.182;2023-06-10T06:10:36;13.13;;;9.82;;
31770;SDS011;18343;50.152;8.182;2023-06-10T06:13:21;15.30;;;9.93;;
31770;SDS011;18343;50.152;8.182;2023-06-10T06:16:06;13.60;;;10.68;;
31770;SDS011;18343;50.152;8.182;2023-06-10T06:18:50;13.07;;;9.80;;
31770;SDS011;18343;50.152;8.182;2023-06-10T06:21:37;11.07;;;9.18;;
31770;SDS011;18343;50.152;8.182;2023-06-10T06:24:22;12.68;;;9.35;;
31770;SDS011;18343;50.152;8.182;2023-06-10T06:27:06;13.80;;;8.90;;
31770;SDS011;18343;50.152;8.182;2023-06-10T06:29:51;10.52;;;8.52;;
31770;SDS011;18343;50.152;8.182;2023-06-10T06:32:35;10.18;;;8.43;;
31770;SDS011;18343;50.152;8.182;2023-06-10T06:35:20;12.77;;;9.68;;
31770;SDS011;18343;50.152;8.182;2023-06-10T06:38:06;12.65;;;9.00;;
31770;SDS011;18343;50.152;8.182;2023-06-10T06:40:51;13.98;;;9.70;;
31770;SDS011;18343;50.152;8.182;2023-06-10T06:43:35;15.48;;;9.65;;
31770;SDS011;18343;50.152;8.182;2023-06-10T06:46:20;12.95;;;9.77;;
31770;SDS011;18343;50.152;8.182;2023-06-10T06:49:05;15.50;;;9.50;;
31770;SDS011;18343;50.152;8.182;2023-06-10T06:51:49;14.77;;;8.95;;
31770;SDS011;18343;50.152;8.182;2023-06-10T06:54:35;11.30;;;9.32;;
31770;SDS011;18343;50.152;8.182;2023-06-10T06:57:20;10.18;;;8.65;;
31770;SDS011;18343;50.152;8.182;2023-06-10T07:00:05;13.77;;;8.40;;
31770;SDS011;18343;50.152;8.182;2023-06-10T07:02:51;9.82;;;8.00;;
31770;SDS011;18343;50.152;8.182;2023-06-10T07:05:36;10.63;;;8.52;;
31770;SDS011;18343;50.152;8.182;2023-06-10T07:08:21;11.27;;;8.30;;
31770;SDS011;18343;50.152;8.182;2023-06-10T07:11:07;13.38;;;7.93;;
31770;SDS011;18343;50.152;8.182;2023-06-10T07:13:51;11.85;;;8.65;;
31770;SDS011;18343;50.152;8.182;2023-06-10T07:16:36;11.88;;;7.82;;
31770;SDS011;18343;50.152;8.182;2023-06-10T07:19:22;11.57;;;8.35;;
31770;SDS011;18343;50.152;8.182;2023-06-10T07:22:06;10.90;;;7.95;;
31770;SDS011;18343;50.152;8.182;2023-06-10T07:24:51;9.95;;;8.07;;
31770;SDS011;18343;50.152;8.182;2023-06-10T07:27:38;9.57;;;8.05;;
31770;SDS011;18343;50.152;8.182;2023-06-10T07:30:23;10.75;;;8.00;;
31770;SDS011;18343;50.152;8.182;2023-06-10T07:33:09;12.77;;;7.95;;
31770;SDS011;18343;50.152;8.182;2023-06-10T07:35:53;11.40;;;8.00;;
31770;SDS011;18343;50.152;8.182;2023-06-10T07:38:39;9.10;;;7.63;;
31770;SDS011;18343;50.152;8.182;2023-06-10T07:41:24;16.20;;;8.70;;
31770;SDS011;18343;50.152;8.182;2023-06-10T07:44:10;9.27;;;8.35;;
31770;SDS011;18343;50.152;8.182;2023-06-10T07:46:55;11.43;;;7.60;;
31770;SDS011;18343;50.152;8.182;2023-06-10T07:49:39;9.35;;;7.18;;
31770;SDS011;18343;50.152;8.182;2023-06-10T07:52:24;12.95;;;8.20;;
31770;SDS011;18343;50.152;8.182;2023-06-10T07:55:09;12.35;;;7.53;;
31770;SDS011;18343;50.152;8.182;2023-06-10T07:57:55;9.85;;;7.40;;
31770;SDS011;18343;50.152;8.182;2023-06-10T08:00:41;11.25;;;7.50;;
31770;SDS011;18343;50.152;8.182;2023-06-10T08:03:25;10.52;;;7.63;;
31770;SDS011;18343;50.152;8.182;2023-06-10T08:06:10;9.95;;;7.32;;
31770;SDS011;18343;50.152;8.182;2023-06-10T08:08:56;9.05;;;7.53;;
31770;SDS011;18343;50.152;8.182;2023-06-10T08:11:41;8.98;;;7.45;;
31770;SDS011;18343;50.152;8.182;2023-06-10T08:14:25;9.68;;;7.70;;
31770;SDS011;18343;50.152;8.182;2023-06-10T08:17:11;8.85;;;7.05;;
31770;SDS011;18343;50.152;8.182;2023-06-10T08:19:56;13.88;;;8.02;;
31770;SDS011;18343;50.152;8.182;2023-06-10T08:22:40;14.27;;;6.95;;
31770;SDS011;18343;50.152;8.182;2023-06-10T08:25:25;14.98;;;7.25;;
31770;SDS011;18343;50.152;8.182;2023-06-10T08:28:11;12.60;;;7.45;;
31770;SDS011;18343;50.152;8.182;2023-06-10T08:30:55;9.90;;;7.15;;
31770;SDS011;18343;50.152;8.182;2023-06-10T08:33:42;8.02;;;7.22;;
31770;SDS011;18343;50.152;8.182;2023-06-10T08:36:27;12.07;;;7.38;;
31770;SDS011;18343;50.152;8.182;2023-06-10T08:39:11;10.57;;;6.78;;
31770;SDS011;18343;50.152;8.182;2023-06-10T08:41:59;8.80;;;7.22;;
31770;SDS011;18343;50.152;8.182;2023-06-10T08:44:54;9.05;;;6.63;;
31770;SDS011;18343;50.152;8.182;2023-06-10T08:47:39;8.30;;;6.43;;
31770;SDS011;18343;50.152;8.182;2023-06-10T08:50:32;9.40;;;7.13;;
31770;SDS011;18343;50.152;8.182;2023-06-10T08:53:19;6.75;;;5.22;;
31770;SDS011;18343;50.152;8.182;2023-06-10T08:56:04;6.53;;;5.65;;
31770;SDS011;18343;50.152;8.182;2023-06-10T08:58:50;8.48;;;6.47;;
31770;SDS011;18343;50.152;8.182;2023-06-10T09:01:35;6.68;;;5.95;;
31770;SDS011;18343;50.152;8.182;2023-06-10T09:04:20;6.30;;;5.60;;
31770;SDS011;18343;50.152;8.182;2023-06-10T09:07:07;6.88;;;5.65;;
31770;SDS011;18343;50.152;8.182;2023-06-10T09:09:52;8.02;;;5.13;;
31770;SDS011;18343;50.152;8.182;2023-06-10T09:12:38;12.65;;;4.85;;
31770;SDS011;18343;50.152;8.182;2023-06-10T09:15:22;10.30;;;5.30;;
31770;SDS011;18343;50.152;8.182;2023-06-10T09:18:07;11.30;;;5.53;;
31770;SDS011;18343;50.152;8.182;2023-06-10T09:20:51;13.30;;;5.95;;
31770;SDS011;18343;50.152;8.182;2023-06-10T09:23:39;21.75;;;12.40;;
31770;SDS011;18343;50.152;8.182;2023-06-10T09:26:27;16.67;;;11.98;;
31770;SDS011;18343;50.152;8.182;2023-06-10T09:29:12;9.77;;;5.97;;
31770;SDS011;18343;50.152;8.182;2023-06-10T09:31:57;12.10;;;6.05;;
31770;SDS011;18343;50.152;8.182;2023-06-10T09:34:42;9.48;;;5.88;;
31770;SDS011;18343;50.152;8.182;2023-06-10T09:37:28;8.45;;;5.85;;
31770;SDS011;18343;50.152;8.182;2023-06-10T09:40:15;11.68;;;6.15;;
31770;SDS011;18343;50.152;8.182;2023-06-10T09:43:00;5.78;;;5.00;;
31770;SDS011;18343;50.152;8.182;2023-06-10T09:45:47;5.57;;;4.63;;
31770;SDS011;18343;50.152;8.182;2023-06-10T09:48:34;6.88;;;4.80;;
31770;SDS011;18343;50.152;8.182;2023-06-10T09:51:24;10.65;;;4.72;;
31770;SDS011;18343;50.152;8.182;2023-06-10T09:54:09;8.90;;;5.30;;
31770;SDS011;18343;50.152;8.182;2023-06-10T09:56:55;8.00;;;5.03;;
31770;SDS011;18343;50.152;8.182;2023-06-10T09:59:40;9.82;;;7.03;;
31770;SDS011;18343;50.152;8.182;2023-06-10T10:02:25;8.85;;;5.72;;
31770;SDS011;18343;50.152;8.182;2023-06-10T10:05:11;8.23;;;5.07;;
31770;SDS011;18343;50.152;8.182;2023-06-10T10:07:57;12.90;;;6.85;;
31770;SDS011;18343;50.152;8.182;2023-06-10T10:10:44;16.20;;;6.40;;
31770;SDS011;18343;50.152;8.182;2023-06-10T10:13:30;12.50;;;7.22;;
31770;SDS011;18343;50.152;8.182;2023-06-10T10:16:19;10.50;;;6.60;;
31770;SDS011;18343;50.152;8.182;2023-06-10T10:19:08;10.48;;;5.05;;
31770;SDS011;18343;50.152;8.182;2023-06-10T10:22:04;11.98;;;5.68;;
31770;SDS011;18343;50.152;8.182;2023-06-10T10:24:52;6.72;;;4.93;;
31770;SDS011;18343;50.152;8.182;2023-06-10T10:27:43;18.10;;;5.03;;
31770;SDS011;18343;50.152;8.182;2023-06-10T10:30:34;6.63;;;4.88;;
31770;SDS011;18343;50.152;8.182;2023-06-10T10:33:26;7.57;;;5.18;;
31770;SDS011;18343;50.152;8.182;2023-06-10T10:36:19;12.38;;;4.85;;
31770;SDS011;18343;50.152;8.182;2023-06-10T10:39:04;4.95;;;4.50;;
31770;SDS011;18343;50.152;8.182;2023-06-10T10:41:49;8.10;;;4.65;;
31770;SDS011;18343;50.152;8.182;2023-06-10T10:44:34;12.07;;;5.63;;
31770;SDS011;18343;50.152;8.182;2023-06-10T10:47:21;5.35;;;4.68;;
31770;SDS011;18343;50.152;8.182;2023-06-10T10:50:13;6.85;;;4.93;;
31770;SDS011;18343;50.152;8.182;2023-06-10T10:53:01;5.43;;;4.68;;
31770;SDS011;18343;50.152;8.182;2023-06-10T10:55:57;5.90;;;4.55;;
31770;SDS011;18343;50.152;8.182;2023-06-10T10:58:43;6.47;;;5.13;;
31770;SDS011;18343;50.152;8.182;2023-06-10T11:01:47;6.35;;;4.78;;
31770;SDS011;18343;50.152;8.182;2023-06-10T11:04:34;8.32;;;4.50;;
31770;SDS011;18343;50.152;8.182;2023-06-10T11:07:19;5.82;;;4.68;;
31770;SDS011;18343;50.152;8.182;2023-06-10T11:10:07;6.22;;;4.38;;
31770;SDS011;18343;50.152;8.182;2023-06-10T11:12:54;5.68;;;4.40;;
31770;SDS011;18343;50.152;8.182;2023-06-10T11:15:43;10.32;;;4.53;;
31770;SDS011;18343;50.152;8.182;2023-06-10T11:18:29;9.48;;;4.50;;
31770;SDS011;18343;50.152;8.182;2023-06-10T11:21:21;6.10;;;4.20;;
31770;SDS011;18343;50.152;8.182;2023-06-10T11:24:11;6.32;;;4.38;;
31770;SDS011;18343;50.152;8.182;2023-06-10T11:27:15;8.13;;;4.68;;
31770;SDS011;18343;50.152;8.182;2023-06-10T11:30:18;5.57;;;4.40;;
31770;SDS011;18343;50.152;8.182;2023-06-10T11:33:04;8.00;;;3.75;;
31770;SDS011;18343;50.152;8.182;2023-06-10T11:35:51;5.95;;;3.80;;
31770;SDS011;18343;50.152;8.182;2023-06-10T11:38:37;7.18;;;4.28;;
31770;SDS011;18343;50.152;8.182;2023-06-10T11:41:23;8.00;;;4.10;;
31770;SDS011;18343;50.152;8.182;2023-06-10T11:44:09;8.77;;;3.90;;
31770;SDS011;18343;50.152;8.182;2023-06-10T11:46:56;11.25;;;4.65;;
31770;SDS011;18343;50.152;8.182;2023-06-10T11:49:41;6.28;;;4.30;;
31770;SDS011;18343;50.152;8.182;2023-06-10T11:52:26;5.63;;;4.28;;
31770;SDS011;18343;50.152;8.182;2023-06-10T11:55:13;7.10;;;4.30;;
31770;SDS011;18343;50.152;8.182;2023-06-10T11:57:57;8.55;;;4.28;;
31770;SDS011;18343;50.152;8.182;2023-06-10T12:00:43;13.30;;;4.68;;
31770;SDS011;18343;50.152;8.182;2023-06-10T12:03:35;6.30;;;4.45;;
31770;SDS011;18343;50.152;8.182;2023-06-10T12:06:20;8.63;;;4.68;;
31770;SDS011;18343;50.152;8.182;2023-06-10T12:09:05;8.85;;;3.92;;
31770;SDS011;18343;50.152;8.182;2023-06-10T12:11:52;7.93;;;4.13;;
31770;SDS011;18343;50.152;8.182;2023-06-10T12:14:50;6.22;;;4.10;;
31770;SDS011;18343;50.152;8.182;2023-06-10T12:17:38;7.28;;;4.40;;
31770;SDS011;18343;50.152;8.182;2023-06-10T12:20:26;4.85;;;3.90;;
31770;SDS011;18343;50.152;8.182;2023-06-10T12:23:12;4.93;;;3.78;;
31770;SDS011;18343;50.152;8.182;2023-06-10T12:26:17;6.38;;;4.00;;
31770;SDS011;18343;50.152;8.182;2023-06-10T12:29:03;5.43;;;4.30;;
31770;SDS011;18343;50.152;8.182;2023-06-10T12:32:04;5.38;;;3.28;;
31770;SDS011;18343;50.152;8.182;2023-06-10T12:34:49;6.25;;;4.03;;
31770;SDS011;18343;50.152;8.182;2023-06-10T12:37:34;4.95;;;4.07;;
31770;SDS011;18343;50.152;8.182;2023-06-10T12:40:25;9.02;;;4.40;;
31770;SDS011;18343;50.152;8.182;2023-06-10T12:43:10;6.22;;;3.70;;
31770;SDS011;18343;50.152;8.182;2023-06-10T12:45:56;7.00;;;4.00;;
31770;SDS011;18343;50.152;8.182;2023-06-10T12:48:52;8.23;;;4.18;;
31770;SDS011;18343;50.152;8.182;2023-06-10T12:51:37;5.90;;;4.25;;
31770;SDS011;18343;50.152;8.182;2023-06-10T12:54:21;6.82;;;4.20;;
31770;SDS011;18343;50.152;8.182;2023-06-10T12:57:06;8.15;;;3.80;;
31770;SDS011;18343;50.152;8.182;2023-06-10T12:59:50;8.70;;;4.20;;
31770;SDS011;18343;50.152;8.182;2023-06-10T13:02:36;8.63;;;4.35;;
31770;SDS011;18343;50.152;8.182;2023-06-10T13:05:21;7.45;;;3.83;;
31770;SDS011;18343;50.152;8.182;2023-06-10T13:08:06;6.43;;;4.00;;
31770;SDS011;18343;50.152;8.182;2023-06-10T13:10:51;6.32;;;4.13;;
31770;SDS011;18343;50.152;8.182;2023-06-10T13:13:36;5.70;;;4.15;;
31770;SDS011;18343;50.152;8.182;2023-06-10T13:16:21;12.85;;;4.60;;
31770;SDS011;18343;50.152;8.182;2023-06-10T13:19:07;6.45;;;4.15;;
31770;SDS011;18343;50.152;8.182;2023-06-10T13:21:51;5.38;;;3.83;;
31770;SDS011;18343;50.152;8.182;2023-06-10T13:24:39;5.43;;;3.67;;
31770;SDS011;18343;50.152;8.182;2023-06-10T13:27:25;5.32;;;4.03;;
31770;SDS011;18343;50.152;8.182;2023-06-10T13:30:13;6.25;;;4.70;;
31770;SDS011;18343;50.152;8.182;2023-06-10T13:32:58;5.10;;;4.35;;
31770;SDS011;18343;50.152;8.182;2023-06-10T13:35:44;8.25;;;4.20;;
31770;SDS011;18343;50.152;8.182;2023-06-10T13:38:28;8.60;;;5.15;;
31770;SDS011;18343;50.152;8.182;2023-06-10T13:41:13;5.82;;;4.50;;
31770;SDS011;18343;50.152;8.182;2023-06-10T13:43:58;8.30;;;5.10;;
31770;SDS011;18343;50.152;8.182;2023-06-10T13:46:44;8.07;;;4.47;;
31770;SDS011;18343;50.152;8.182;2023-06-10T13:49:29;9.88;;;4.55;;
31770;SDS011;18343;50.152;8.182;2023-06-10T13:52:15;7.70;;;4.72;;
31770;SDS011;18343;50.152;8.182;2023-06-10T13:55:00;6.35;;;4.35;;
31770;SDS011;18343;50.152;8.182;2023-06-10T13:57:45;6.50;;;4.85;;
31770;SDS011;18343;50.152;8.182;2023-06-10T14:00:29;6.20;;;4.78;;
31770;SDS011;18343;50.152;8.182;2023-06-10T14:03:14;5.72;;;4.85;;
31770;SDS011;18343;50.152;8.182;2023-06-10T14:05:59;7.30;;;4.68;;
31770;SDS011;18343;50.152;8.182;2023-06-10T14:08:46;6.80;;;4.90;;
31770;SDS011;18343;50.152;8.182;2023-06-10T14:11:31;8.57;;;7.63;;
31770;SDS011;18343;50.152;8.182;2023-06-10T14:14:15;13.10;;;6.22;;
31770;SDS011;18343;50.152;8.182;2023-06-10T14:17:02;10.13;;;5.75;;
31770;SDS011;18343;50.152;8.182;2023-06-10T14:19:47;9.32;;;5.35;;
31770;SDS011;18343;50.152;8.182;2023-06-10T14:22:31;14.90;;;5.60;;
31770;SDS011;18343;50.152;8.182;2023-06-10T14:25:18;5.63;;;4.93;;
31770;SDS011;18343;50.152;8.182;2023-06-10T14:28:02;8.57;;;5.80;;
31770;SDS011;18343;50.152;8.182;2023-06-10T14:30:47;11.23;;;7.78;;
31770;SDS011;18343;50.152;8.182;2023-06-10T14:33:33;6.45;;;5.45;;
31770;SDS011;18343;50.152;8.182;2023-06-10T14:36:18;8.48;;;6.10;;
31770;SDS011;18343;50.152;8.182;2023-06-10T14:39:03;8.88;;;5.40;;
31770;SDS011;18343;50.152;8.182;2023-06-10T14:41:49;7.65;;;5.15;;
31770;SDS011;18343;50.152;8.182;2023-06-10T14:44:33;9.30;;;6.63;;
31770;SDS011;18343;50.152;8.182;2023-06-10T14:47:23;8.88;;;5.60;;
31770;SDS011;18343;50.152;8.182;2023-06-10T14:50:08;6.78;;;4.68;;
31770;SDS011;18343;50.152;8.182;2023-06-10T14:52:53;11.05;;;6.10;;
31770;SDS011;18343;50.152;8.182;2023-06-10T14:55:38;10.07;;;5.57;;
31770;SDS011;18343;50.152;8.182;2023-06-10T14:58:25;9.77;;;5.03;;
31770;SDS011;18343;50.152;8.182;2023-06-10T15:01:12;8.15;;;5.07;;
31770;SDS011;18343;50.152;8.182;2023-06-10T15:03:57;8.70;;;4.93;;
31770;SDS011;18343;50.152;8.182;2023-06-10T15:06:42;8.32;;;4.55;;
31770;SDS011;18343;50.152;8.182;2023-06-10T15:09:26;5.60;;;4.40;;
31770;SDS011;18343;50.152;8.182;2023-06-10T15:12:11;8.80;;;5.60;;
31770;SDS011;18343;50.152;8.182;2023-06-10T15:14:57;11.57;;;5.35;;
31770;SDS011;18343;50.152;8.182;2023-06-10T15:17:41;6.55;;;5.30;;
31770;SDS011;18343;50.152;8.182;2023-06-10T15:20:26;8.57;;;5.55;;
31770;SDS011;18343;50.152;8.182;2023-06-10T15:23:11;8.88;;;5.32;;
31770;SDS011;18343;50.152;8.182;2023-06-10T15:25:55;6.65;;;5.35;;
31770;SDS011;18343;50.152;8.182;2023-06-10T15:28:40;8.02;;;5.25;;
31770;SDS011;18343;50.152;8.182;2023-06-10T15:31:26;7.05;;;5.07;;
31770;SDS011;18343;50.152;8.182;2023-06-10T15:34:11;8.93;;;4.65;;
31770;SDS011;18343;50.152;8.182;2023-06-10T15:36:56;7.20;;;5.05;;
31770;SDS011;18343;50.152;8.182;2023-06-10T15:39:40;8.85;;;4.70;;
31770;SDS011;18343;50.152;8.182;2023-06-10T15:42:25;5.50;;;4.78;;
31770;SDS011;18343;50.152;8.182;2023-06-10T15:45:09;5.95;;;4.75;;
31770;SDS011;18343;50.152;8.182;2023-06-10T15:47:56;5.93;;;4.32;;
31770;SDS011;18343;50.152;8.182;2023-06-10T15:50:40;12.63;;;4.55;;
31770;SDS011;18343;50.152;8.182;2023-06-10T15:53:25;7.55;;;4.40;;
31770;SDS011;18343;50.152;8.182;2023-06-10T15:56:10;6.35;;;4.82;;
31770;SDS011;18343;50.152;8.182;2023-06-10T15:58:54;5.93;;;4.72;;
31770;SDS011;18343;50.152;8.182;2023-06-10T16:01:38;8.23;;;4.75;;
31770;SDS011;18343;50.152;8.182;2023-06-10T16:04:25;6.50;;;4.93;;
31770;SDS011;18343;50.152;8.182;2023-06-10T16:07:10;6.38;;;4.57;;
31770;SDS011;18343;50.152;8.182;2023-06-10T16:09:54;10.45;;;4.75;;
31770;SDS011;18343;50.152;8.182;2023-06-10T16:12:39;9.40;;;4.50;;
31770;SDS011;18343;50.152;8.182;2023-06-10T16:15:24;6.05;;;5.07;;
31770;SDS011;18343;50.152;8.182;2023-06-10T16:18:11;5.50;;;4.68;;
31770;SDS011;18343;50.152;8.182;2023-06-10T16:20:57;7.90;;;4.80;;
31770;SDS011;18343;50.152;8.182;2023-06-10T16:23:42;5.75;;;4.78;;
31770;SDS011;18343;50.152;8.182;2023-06-10T16:26:27;9.55;;;4.50;;
31770;SDS011;18343;50.152;8.182;2023-06-10T16:29:11;8.18;;;4.75;;